1 Hotel West Hollywood East Helipad

US-3769 · California, United States

METAR history US-3769 · 1 Hotel West Hollywood East Helipad

Below you see METARs of the last few days. Select a year to browse through older METARs, from the year 2007 onwards.

November 26, 2022

Time Code Weather Temp. Visibility Ceiling Wind METAR/SPECI
06:47
V
9 °C 10 mi - Var 000° 0 kt METAR KCQT 261447Z AUTO 00000KT 10SM CLR 09/M01 A3015 RMK AO2 SLP209 T00891011 53008
05:47
V
8 °C 10 mi - Var 000° 0 kt METAR KCQT 261347Z AUTO 00000KT 10SM CLR 08/00 A3014 RMK AO2 SLP206 T00830000
04:47
V
9 °C 10 mi - Var 000° 0 kt METAR KCQT 261247Z AUTO 00000KT 10SM CLR 09/M01 A3013 RMK AO2 SLP203 T00891006
03:47
V
12 °C 10 mi - Var 000° 0 kt METAR KCQT 261147Z AUTO 00000KT 10SM CLR 12/M03 A3013 RMK AO2 SLP200 T01171033 10128 20100 58007
02:47
V
10 °C 10 mi - Var 000° 0 kt METAR KCQT 261047Z AUTO 00000KT 10SM CLR 10/M01 A3014 RMK AO2 SLP205 T01001006
01:47
V
10 °C 10 mi - Var 000° 0 kt METAR KCQT 260947Z AUTO 00000KT 10SM CLR 10/01 A3016 RMK AO2 SLP210 T01000006
00:47
V
12 °C 10 mi - Var 000° 0 kt METAR KCQT 260847Z AUTO 00000KT 10SM CLR 12/M01 A3015 RMK AO2 SLP208 T01171011 58017

November 25, 2022

Time Code Weather Temp. Visibility Ceiling Wind METAR/SPECI
23:47
V
12 °C 10 mi - 030° 030° 3 kt METAR KCQT 260747Z AUTO 03003KT 10SM CLR 12/03 A3018 RMK AO2 SLP217 T01170028 402390089
22:47
V
12 °C 10 mi - Var 000° 0 kt METAR KCQT 260647Z AUTO 00000KT 10SM CLR 12/05 A3019 RMK AO2 SLP223 T01220050
21:47
V
13 °C 10 mi - Var 000° 0 kt METAR KCQT 260547Z AUTO 00000KT 10SM CLR 13/05 A3020 RMK AO2 SLP224 T01280050 10217 20128 50003
20:47
V
14 °C 10 mi - Var 000° 0 kt METAR KCQT 260447Z AUTO 00000KT 10SM CLR 14/05 A3020 RMK AO2 SLP226 T01390050
19:47
V
14 °C 10 mi - Var 000° 0 kt METAR KCQT 260347Z AUTO 00000KT 10SM CLR 14/03 A3020 RMK AO2 SLP226 T01440028
18:47
V
16 °C 10 mi - Var 000° 0 kt METAR KCQT 260247Z AUTO 00000KT 10SM CLR 16/M03 A3019 RMK AO2 SLP223 T01611028 53003
17:47
V
18 °C 10 mi - Var 000° 0 kt METAR KCQT 260147Z AUTO 00000KT 10SM CLR 18/M03 A3019 RMK AO2 SLP221 T01781033
16:47
V
19 °C 10 mi - 260° 260° 3 kt METAR KCQT 260047Z AUTO 26003KT 10SM CLR 19/M03 A3018 RMK AO2 SLP220 T01941028
15:47
V
22 °C 10 mi - 270° 270° 5 kt METAR KCQT 252347Z AUTO 27005KT 10SM CLR 22/M04 A3018 RMK AO2 SLP220 T02171039 10239 20206 56006
14:47
V
23 °C 10 mi - 260° 260° 5 kt METAR KCQT 252247Z AUTO 26005KT 10SM CLR 23/M04 A3019 RMK AO2 SLP220 T02281039
13:47
V
23 °C 10 mi - 260° 260° 7 kt METAR KCQT 252147Z AUTO 26007KT 10SM CLR 23/M06 A3019 RMK AO2 SLP221 T02331061
12:47
V
24 °C 10 mi - Var 000° 0 kt METAR KCQT 252047Z AUTO 00000KT 10SM CLR 24/M08 A3020 RMK AO2 SLP225 T02391078 58027
11:47
V
23 °C 10 mi - Var Var 3 kt METAR KCQT 251947Z AUTO VRB03KT 10SM CLR 23/M07 A3023 RMK AO2 SLP234 T02331067
10:47
V
22 °C 10 mi - Var 000° 0 kt METAR KCQT 251847Z AUTO 00000KT 10SM CLR 22/M07 A3026 RMK AO2 SLP246 T02171072
09:47
V
21 °C 10 mi - Var 000° 0 kt SPECI KCQT 251747Z AUTO 00000KT 10SM CLR 21/M06 A3028 RMK AO2 SLP253 T02061061 10206 20089 58000
08:47
V
18 °C 10 mi - Var Var 4 kt METAR KCQT 251647Z AUTO VRB04KT 10SM CLR 18/M07 A3028 RMK AO2 SLP254 T01781067
07:47
V
14 °C 10 mi - Var 000° 0 kt METAR KCQT 251547Z AUTO 00000KT 10SM CLR 14/M06 A3029 RMK AO2 SLP258 T01391061
06:47
V
12 °C 10 mi - Var 000° 0 kt METAR KCQT 251447Z AUTO 00000KT 10SM CLR 12/M06 A3028 RMK AO2 SLP254 T01171061 53004
05:47
V
10 °C 10 mi - Var 000° 0 kt METAR KCQT 251347Z AUTO 00000KT 10SM CLR 10/M04 A3028 RMK AO2 SLP252 T01001039
04:47
V
11 °C 10 mi - Var 000° 0 kt METAR KCQT 251247Z AUTO 00000KT 10SM CLR 11/M03 A3026 RMK AO2 SLP247 T01061033
03:47
V
9 °C 10 mi - Var 000° 0 kt METAR KCQT 251147Z AUTO 00000KT 10SM CLR 09/01 A3027 RMK AO2 SLP249 T00890006 10150 20089 53004
02:47
V
10 °C 10 mi - Var 000° 0 kt SPECI KCQT 251047Z AUTO 00000KT 10SM CLR 10/00 A3026 RMK AO2 SLP246 T01000000
01:47
V
11 °C 10 mi - Var 000° 0 kt METAR KCQT 250947Z AUTO 00000KT 10SM CLR 11/M01 A3026 RMK AO2 SLP244 T01061011
00:47
V
13 °C 10 mi - 020° 020° 3 kt METAR KCQT 250847Z AUTO 02003KT 10SM CLR 13/M03 A3026 RMK AO2 SLP245 T01331028 51005

November 24, 2022

Time Code Weather Temp. Visibility Ceiling Wind METAR/SPECI
23:47
V
13 °C 10 mi - Var 000° 0 kt SPECI KCQT 250747Z AUTO 00000KT 10SM CLR 13/M01 A3026 RMK AO2 SLP245 T01281006 402560083
22:47
V
14 °C 10 mi - Var 000° 0 kt METAR KCQT 250647Z AUTO 00000KT 10SM CLR 14/01 A3026 RMK AO2 SLP246 T01390011
21:47
V
13 °C 10 mi - Var 000° 0 kt METAR KCQT 250547Z AUTO 00000KT 10SM CLR 13/03 A3024 RMK AO2 SLP239 T01330033 10239 20133 51021
20:47
V
14 °C 10 mi - Var 000° 0 kt METAR KCQT 250447Z AUTO 00000KT 10SM CLR 14/02 A3023 RMK AO2 SLP235 T01390022
19:47
V
16 °C 10 mi - Var 000° 0 kt METAR KCQT 250347Z AUTO 00000KT 10SM CLR 16/02 A3020 RMK AO2 SLP228 T01560022
18:47
V
17 °C 10 mi - Var 000° 0 kt METAR KCQT 250247Z AUTO 00000KT 10SM CLR 17/02 A3018 RMK AO2 SLP219 T01670022 51014
17:47
V
18 °C 10 mi - Var 000° 0 kt METAR KCQT 250147Z AUTO 00000KT 10SM CLR 18/02 A3017 RMK AO2 SLP215 T01780022
16:47
V
21 °C 10 mi - Var 000° 0 kt METAR KCQT 250047Z AUTO 00000KT 10SM CLR 21/00 A3016 RMK AO2 SLP211 T02060000
15:47
V
24 °C 10 mi - 280° 280° 4 kt METAR KCQT 242347Z AUTO 28004KT 10SM CLR 24/M04 A3014 RMK AO2 SLP204 T02391044 10256 20200 55001
14:47
V
25 °C 10 mi - 250° 250° 3 kt METAR KCQT 242247Z AUTO 25003KT 10SM CLR 25/00 A3013 RMK AO2 SLP202 T02500000
13:47
V
25 °C 10 mi - Var 000° 0 kt METAR KCQT 242147Z AUTO 00000KT 10SM CLR 25/01 A3013 RMK AO2 SLP201 T02500006
12:47
V
25 °C 10 mi - Var 000° 0 kt METAR KCQT 242047Z AUTO 00000KT 10SM CLR 25/M06 A3014 RMK AO2 SLP206 T02501061 58018
11:47
V
23 °C 10 mi - Var 000° 0 kt METAR KCQT 241947Z AUTO 00000KT 10SM CLR 23/M02 A3016 RMK AO2 SLP213 T02331022
10:47
V
22 °C 8 mi - 270° 270° 3 kt METAR KCQT 241847Z AUTO 27003KT 8SM CLR 22/01 A3018 RMK AO2 SLP219 T02220006
09:47
V
20 °C 8 mi - Var 000° 0 kt METAR KCQT 241747Z AUTO 00000KT 8SM CLR 20/03 A3020 RMK AO2 SLP224 T02000028 10200 20083 51017
08:47
V
16 °C 8 mi - Var 000° 0 kt SPECI KCQT 241647Z AUTO 00000KT 8SM CLR 16/05 A3019 RMK AO2 SLP221 T01610050
07:47
V
11 °C 8 mi - Var 000° 0 kt SPECI KCQT 241547Z AUTO 00000KT 8SM CLR 11/04 A3017 RMK AO2 SLP216 T01060039
06:47
V
9 °C 8 mi - Var 000° 0 kt METAR KCQT 241447Z AUTO 00000KT 8SM CLR 09/03 A3015 RMK AO2 SLP208 T00890033 53018
05:47
V
9 °C 10 mi - Var 000° 0 kt METAR KCQT 241347Z AUTO 00000KT 10SM CLR 09/03 A3012 RMK AO2 SLP200 T00890028
04:47
V
10 °C 10 mi - 110° 110° 3 kt METAR KCQT 241247Z AUTO 11003KT 10SM CLR 10/03 A3011 RMK AO2 SLP195 T01000028
03:47
V
9 °C 9 mi - Var 000° 0 kt METAR KCQT 241147Z AUTO 00000KT 9SM CLR 09/04 A3010 RMK AO2 SLP191 T00940044 10128 20094 52002
02:47
V
9 °C 8 mi - Var 000° 0 kt METAR KCQT 241047Z AUTO 00000KT 8SM CLR 09/06 A3010 RMK AO2 SLP189 T00940056
01:47
V
10 °C 6 mi - Var 000° 0 kt METAR KCQT 240947Z AUTO 00000KT 6SM HZ CLR 10/07 A3009 RMK AO2 SLP187 T01000072

We and third parties follow your internet behavior on our website with cookies. If you continue, we assume you agree with our cookie policy.